sensor_id;sensor_type;location;lat;lon;timestamp;temperature;humidity
9984;DHT22;16737;50.932;6.780;2023-06-22T00:01:21;25.50;70.50
9984;DHT22;16737;50.932;6.780;2023-06-22T00:03:48;25.50;70.60
9984;DHT22;16737;50.932;6.780;2023-06-22T00:06:15;25.50;70.70
9984;DHT22;16737;50.932;6.780;2023-06-22T00:08:44;25.50;70.60
9984;DHT22;16737;50.932;6.780;2023-06-22T00:11:11;25.50;70.70
9984;DHT22;16737;50.932;6.780;2023-06-22T00:13:38;25.50;70.70
9984;DHT22;16737;50.932;6.780;2023-06-22T00:16:06;25.50;70.80
9984;DHT22;16737;50.932;6.780;2023-06-22T00:18:33;25.50;70.90
9984;DHT22;16737;50.932;6.780;2023-06-22T00:20:59;25.50;70.90
9984;DHT22;16737;50.932;6.780;2023-06-22T00:23:27;25.50;71.00
9984;DHT22;16737;50.932;6.780;2023-06-22T00:25:55;25.40;70.90
9984;DHT22;16737;50.932;6.780;2023-06-22T00:28:22;25.40;71.10
9984;DHT22;16737;50.932;6.780;2023-06-22T00:30:49;25.40;71.00
9984;DHT22;16737;50.932;6.780;2023-06-22T00:33:16;25.40;71.00
9984;DHT22;16737;50.932;6.780;2023-06-22T00:35:43;25.40;71.00
9984;DHT22;16737;50.932;6.780;2023-06-22T00:38:10;25.40;71.00
9984;DHT22;16737;50.932;6.780;2023-06-22T00:40:38;25.40;71.00
9984;DHT22;16737;50.932;6.780;2023-06-22T00:43:06;25.40;71.20
9984;DHT22;16737;50.932;6.780;2023-06-22T00:45:33;25.40;71.30
9984;DHT22;16737;50.932;6.780;2023-06-22T00:48:01;25.40;71.20
9984;DHT22;16737;50.932;6.780;2023-06-22T00:50:30;25.40;71.20
9984;DHT22;16737;50.932;6.780;2023-06-22T00:53:00;25.40;71.30
9984;DHT22;16737;50.932;6.780;2023-06-22T00:55:33;25.30;71.20
9984;DHT22;16737;50.932;6.780;2023-06-22T00:58:06;25.30;71.20
9984;DHT22;16737;50.932;6.780;2023-06-22T01:00:36;25.30;71.20
9984;DHT22;16737;50.932;6.780;2023-06-22T01:03:05;25.30;71.30
9984;DHT22;16737;50.932;6.780;2023-06-22T01:05:35;25.30;71.30
9984;DHT22;16737;50.932;6.780;2023-06-22T01:08:12;25.30;71.40
9984;DHT22;16737;50.932;6.780;2023-06-22T01:10:52;25.30;71.70
9984;DHT22;16737;50.932;6.780;2023-06-22T01:13:29;25.20;71.30
9984;DHT22;16737;50.932;6.780;2023-06-22T01:16:04;25.20;71.40
9984;DHT22;16737;50.932;6.780;2023-06-22T01:18:36;25.20;71.20
9984;DHT22;16737;50.932;6.780;2023-06-22T01:21:11;25.20;71.40
9984;DHT22;16737;50.932;6.780;2023-06-22T01:23:53;25.20;71.50
9984;DHT22;16737;50.932;6.780;2023-06-22T01:26:35;25.20;71.70
9984;DHT22;16737;50.932;6.780;2023-06-22T01:29:08;25.20;71.60
9984;DHT22;16737;50.932;6.780;2023-06-22T01:31:39;25.20;71.50
9984;DHT22;16737;50.932;6.780;2023-06-22T01:34:08;25.20;71.40
9984;DHT22;16737;50.932;6.780;2023-06-22T01:36:38;25.10;72.40
9984;DHT22;16737;50.932;6.780;2023-06-22T01:39:06;25.10;71.60
9984;DHT22;16737;50.932;6.780;2023-06-22T01:41:36;25.10;71.60
9984;DHT22;16737;50.932;6.780;2023-06-22T01:44:07;25.10;71.70
9984;DHT22;16737;50.932;6.780;2023-06-22T01:46:36;25.10;71.70
9984;DHT22;16737;50.932;6.780;2023-06-22T01:49:05;25.10;71.70
9984;DHT22;16737;50.932;6.780;2023-06-22T01:51:33;25.10;71.80
9984;DHT22;16737;50.932;6.780;2023-06-22T01:54:01;25.10;71.90
9984;DHT22;16737;50.932;6.780;2023-06-22T01:56:28;25.00;71.90
9984;DHT22;16737;50.932;6.780;2023-06-22T01:59:00;25.00;71.80
9984;DHT22;16737;50.932;6.780;2023-06-22T02:01:38;25.00;72.00
9984;DHT22;16737;50.932;6.780;2023-06-22T02:04:13;25.00;72.00
9984;DHT22;16737;50.932;6.780;2023-06-22T02:06:46;25.00;72.20
9984;DHT22;16737;50.932;6.780;2023-06-22T02:09:17;25.00;72.80
9984;DHT22;16737;50.932;6.780;2023-06-22T02:11:51;25.00;72.10
9984;DHT22;16737;50.932;6.780;2023-06-22T02:14:21;25.00;72.20
9984;DHT22;16737;50.932;6.780;2023-06-22T02:16:50;25.00;72.20
9984;DHT22;16737;50.932;6.780;2023-06-22T02:19:22;24.90;72.30
9984;DHT22;16737;50.932;6.780;2023-06-22T02:21:50;24.90;72.40
9984;DHT22;16737;50.932;6.780;2023-06-22T02:24:17;24.90;72.10
9984;DHT22;16737;50.932;6.780;2023-06-22T02:26:44;24.90;72.20
9984;DHT22;16737;50.932;6.780;2023-06-22T02:29:11;24.90;72.20
9984;DHT22;16737;50.932;6.780;2023-06-22T02:31:38;24.90;72.20
9984;DHT22;16737;50.932;6.780;2023-06-22T02:34:07;24.90;72.20
9984;DHT22;16737;50.932;6.780;2023-06-22T02:36:34;24.90;72.40
9984;DHT22;16737;50.932;6.780;2023-06-22T02:39:01;24.90;72.30
9984;DHT22;16737;50.932;6.780;2023-06-22T02:41:29;24.90;72.50
9984;DHT22;16737;50.932;6.780;2023-06-22T02:43:56;24.90;72.50
9984;DHT22;16737;50.932;6.780;2023-06-22T02:46:23;24.80;73.30
9984;DHT22;16737;50.932;6.780;2023-06-22T02:48:50;24.80;72.60
9984;DHT22;16737;50.932;6.780;2023-06-22T02:51:18;24.80;72.70
9984;DHT22;16737;50.932;6.780;2023-06-22T02:53:45;24.80;72.80
9984;DHT22;16737;50.932;6.780;2023-06-22T02:56:13;24.80;72.80
9984;DHT22;16737;50.932;6.780;2023-06-22T02:58:40;24.80;73.00
9984;DHT22;16737;50.932;6.780;2023-06-22T03:01:06;24.80;73.00
9984;DHT22;16737;50.932;6.780;2023-06-22T03:03:33;24.80;73.10
9984;DHT22;16737;50.932;6.780;2023-06-22T03:06:00;24.70;73.00
9984;DHT22;16737;50.932;6.780;2023-06-22T03:08:29;24.70;73.20
9984;DHT22;16737;50.932;6.780;2023-06-22T03:10:56;24.70;73.40
9984;DHT22;16737;50.932;6.780;2023-06-22T03:13:23;24.70;73.50
9984;DHT22;16737;50.932;6.780;2023-06-22T03:15:50;24.70;73.40
9984;DHT22;16737;50.932;6.780;2023-06-22T03:18:18;24.70;73.50
9984;DHT22;16737;50.932;6.780;2023-06-22T03:20:47;24.70;73.60
9984;DHT22;16737;50.932;6.780;2023-06-22T03:23:14;24.70;73.80
9984;DHT22;16737;50.932;6.780;2023-06-22T03:25:43;24.70;73.80
9984;DHT22;16737;50.932;6.780;2023-06-22T03:28:11;24.70;74.00
9984;DHT22;16737;50.932;6.780;2023-06-22T03:30:38;24.70;73.90
9984;DHT22;16737;50.932;6.780;2023-06-22T03:33:04;24.60;73.90
9984;DHT22;16737;50.932;6.780;2023-06-22T03:35:31;24.60;74.00
9984;DHT22;16737;50.932;6.780;2023-06-22T03:37:58;24.60;74.20
9984;DHT22;16737;50.932;6.780;2023-06-22T03:40:25;24.60;74.30
9984;DHT22;16737;50.932;6.780;2023-06-22T03:42:53;24.60;74.50
9984;DHT22;16737;50.932;6.780;2023-06-22T03:45:20;24.60;74.70
9984;DHT22;16737;50.932;6.780;2023-06-22T03:47:47;24.60;74.90
9984;DHT22;16737;50.932;6.780;2023-06-22T03:50:14;24.60;75.10
9984;DHT22;16737;50.932;6.780;2023-06-22T03:52:41;24.50;75.10
9984;DHT22;16737;50.932;6.780;2023-06-22T03:55:11;24.50;75.30
9984;DHT22;16737;50.932;6.780;2023-06-22T03:57:38;24.50;75.60
9984;DHT22;16737;50.932;6.780;2023-06-22T04:00:07;24.50;75.70
9984;DHT22;16737;50.932;6.780;2023-06-22T04:02:35;24.50;76.30
9984;DHT22;16737;50.932;6.780;2023-06-22T04:05:03;24.50;76.00
9984;DHT22;16737;50.932;6.780;2023-06-22T04:07:30;24.40;75.80
9984;DHT22;16737;50.932;6.780;2023-06-22T04:09:57;24.40;76.10
9984;DHT22;16737;50.932;6.780;2023-06-22T04:12:24;24.40;76.20
9984;DHT22;16737;50.932;6.780;2023-06-22T04:14:51;24.40;76.40
9984;DHT22;16737;50.932;6.780;2023-06-22T04:17:19;24.40;76.40
9984;DHT22;16737;50.932;6.780;2023-06-22T04:19:46;24.40;76.70
9984;DHT22;16737;50.932;6.780;2023-06-22T04:22:13;24.40;76.80
9984;DHT22;16737;50.932;6.780;2023-06-22T04:24:40;24.40;76.90
9984;DHT22;16737;50.932;6.780;2023-06-22T04:27:07;24.40;76.80
9984;DHT22;16737;50.932;6.780;2023-06-22T04:29:34;24.40;76.90
9984;DHT22;16737;50.932;6.780;2023-06-22T04:32:00;24.40;77.00
9984;DHT22;16737;50.932;6.780;2023-06-22T04:34:31;24.40;77.10
9984;DHT22;16737;50.932;6.780;2023-06-22T04:36:58;24.40;77.30
9984;DHT22;16737;50.932;6.780;2023-06-22T04:39:25;24.40;77.30
9984;DHT22;16737;50.932;6.780;2023-06-22T04:41:52;24.40;77.30
9984;DHT22;16737;50.932;6.780;2023-06-22T04:44:25;24.40;77.40
9984;DHT22;16737;50.932;6.780;2023-06-22T04:46:53;24.40;77.50
9984;DHT22;16737;50.932;6.780;2023-06-22T04:49:26;24.40;77.60
9984;DHT22;16737;50.932;6.780;2023-06-22T04:51:59;24.40;77.70
9984;DHT22;16737;50.932;6.780;2023-06-22T04:54:27;24.40;77.90
9984;DHT22;16737;50.932;6.780;2023-06-22T04:56:54;24.40;77.90
9984;DHT22;16737;50.932;6.780;2023-06-22T04:59:22;24.40;77.90
9984;DHT22;16737;50.932;6.780;2023-06-22T05:01:54;24.40;78.10
9984;DHT22;16737;50.932;6.780;2023-06-22T05:04:21;24.40;78.20
9984;DHT22;16737;50.932;6.780;2023-06-22T05:06:49;24.40;78.30
9984;DHT22;16737;50.932;6.780;2023-06-22T05:09:18;24.40;78.80
9984;DHT22;16737;50.932;6.780;2023-06-22T05:11:46;24.40;79.10
9984;DHT22;16737;50.932;6.780;2023-06-22T05:14:13;24.40;78.90
9984;DHT22;16737;50.932;6.780;2023-06-22T05:16:41;24.40;78.80
9984;DHT22;16737;50.932;6.780;2023-06-22T05:19:09;24.40;78.90
9984;DHT22;16737;50.932;6.780;2023-06-22T05:21:36;24.40;79.00
9984;DHT22;16737;50.932;6.780;2023-06-22T05:24:04;24.40;79.00
9984;DHT22;16737;50.932;6.780;2023-06-22T05:26:33;24.40;79.10
9984;DHT22;16737;50.932;6.780;2023-06-22T05:29:02;24.40;79.30
9984;DHT22;16737;50.932;6.780;2023-06-22T05:31:29;24.40;79.20
9984;DHT22;16737;50.932;6.780;2023-06-22T05:33:57;24.40;79.30
9984;DHT22;16737;50.932;6.780;2023-06-22T05:36:25;24.40;79.30
9984;DHT22;16737;50.932;6.780;2023-06-22T05:38:52;24.40;79.30
9984;DHT22;16737;50.932;6.780;2023-06-22T05:41:19;24.50;79.50
9984;DHT22;16737;50.932;6.780;2023-06-22T05:43:48;24.50;79.70
9984;DHT22;16737;50.932;6.780;2023-06-22T05:46:15;24.50;80.00
9984;DHT22;16737;50.932;6.780;2023-06-22T05:48:42;24.50;79.90
9984;DHT22;16737;50.932;6.780;2023-06-22T05:51:09;24.50;79.90
9984;DHT22;16737;50.932;6.780;2023-06-22T05:53:37;24.50;80.00
9984;DHT22;16737;50.932;6.780;2023-06-22T05:56:04;24.50;80.10
9984;DHT22;16737;50.932;6.780;2023-06-22T05:58:31;24.50;80.20
9984;DHT22;16737;50.932;6.780;2023-06-22T06:00:59;24.50;80.20
9984;DHT22;16737;50.932;6.780;2023-06-22T06:03:26;24.60;80.40
9984;DHT22;16737;50.932;6.780;2023-06-22T06:05:54;24.60;80.30
9984;DHT22;16737;50.932;6.780;2023-06-22T06:08:21;24.70;80.50
9984;DHT22;16737;50.932;6.780;2023-06-22T06:10:48;24.70;80.50
9984;DHT22;16737;50.932;6.780;2023-06-22T06:13:15;24.70;80.70
9984;DHT22;16737;50.932;6.780;2023-06-22T06:15:42;24.70;80.80
9984;DHT22;16737;50.932;6.780;2023-06-22T06:18:10;24.80;81.00
9984;DHT22;16737;50.932;6.780;2023-06-22T06:20:37;24.80;81.10
9984;DHT22;16737;50.932;6.780;2023-06-22T06:23:04;24.80;80.90
9984;DHT22;16737;50.932;6.780;2023-06-22T06:25:31;24.90;81.00
9984;DHT22;16737;50.932;6.780;2023-06-22T06:27:58;24.90;81.00
9984;DHT22;16737;50.932;6.780;2023-06-22T06:30:25;24.90;80.90
9984;DHT22;16737;50.932;6.780;2023-06-22T06:32:52;24.90;80.90
9984;DHT22;16737;50.932;6.780;2023-06-22T06:35:20;25.00;80.80
9984;DHT22;16737;50.932;6.780;2023-06-22T06:37:48;25.10;81.70
9984;DHT22;16737;50.932;6.780;2023-06-22T06:40:17;25.10;80.80
9984;DHT22;16737;50.932;6.780;2023-06-22T06:42:46;25.10;80.90
9984;DHT22;16737;50.932;6.780;2023-06-22T06:45:17;25.20;81.00
9984;DHT22;16737;50.932;6.780;2023-06-22T06:47:45;25.20;81.00
9984;DHT22;16737;50.932;6.780;2023-06-22T06:50:12;25.20;81.00
9984;DHT22;16737;50.932;6.780;2023-06-22T06:52:41;25.30;81.20
9984;DHT22;16737;50.932;6.780;2023-06-22T06:55:08;25.30;81.40
9984;DHT22;16737;50.932;6.780;2023-06-22T06:57:37;25.40;81.50
9984;DHT22;16737;50.932;6.780;2023-06-22T07:00:05;25.50;81.50
9984;DHT22;16737;50.932;6.780;2023-06-22T07:02:37;25.50;81.50
9984;DHT22;16737;50.932;6.780;2023-06-22T07:05:05;25.60;81.40
9984;DHT22;16737;50.932;6.780;2023-06-22T07:07:33;25.60;81.50
9984;DHT22;16737;50.932;6.780;2023-06-22T07:10:02;25.70;81.70
9984;DHT22;16737;50.932;6.780;2023-06-22T07:12:29;25.70;81.80
9984;DHT22;16737;50.932;6.780;2023-06-22T07:15:01;25.80;81.80
9984;DHT22;16737;50.932;6.780;2023-06-22T07:17:29;25.80;82.10
9984;DHT22;16737;50.932;6.780;2023-06-22T07:19:56;25.90;82.00
9984;DHT22;16737;50.932;6.780;2023-06-22T07:22:23;25.90;81.90
9984;DHT22;16737;50.932;6.780;2023-06-22T07:24:50;26.00;82.00
9984;DHT22;16737;50.932;6.780;2023-06-22T07:27:19;26.00;82.10
9984;DHT22;16737;50.932;6.780;2023-06-22T07:29:46;26.10;82.10
9984;DHT22;16737;50.932;6.780;2023-06-22T07:32:13;26.10;82.00
9984;DHT22;16737;50.932;6.780;2023-06-22T07:34:40;26.20;82.10
9984;DHT22;16737;50.932;6.780;2023-06-22T07:37:08;26.20;82.10
9984;DHT22;16737;50.932;6.780;2023-06-22T07:39:36;26.30;82.30
9984;DHT22;16737;50.932;6.780;2023-06-22T07:42:04;26.30;82.30
9984;DHT22;16737;50.932;6.780;2023-06-22T07:44:33;26.30;82.50
9984;DHT22;16737;50.932;6.780;2023-06-22T07:46:59;26.30;82.50
9984;DHT22;16737;50.932;6.780;2023-06-22T07:49:27;26.40;82.90
9984;DHT22;16737;50.932;6.780;2023-06-22T07:51:54;26.40;83.00
9984;DHT22;16737;50.932;6.780;2023-06-22T07:54:22;26.50;83.10
9984;DHT22;16737;50.932;6.780;2023-06-22T07:56:49;26.50;82.90
9984;DHT22;16737;50.932;6.780;2023-06-22T07:59:15;26.60;82.80
9984;DHT22;16737;50.932;6.780;2023-06-22T08:01:44;26.60;82.50
9984;DHT22;16737;50.932;6.780;2023-06-22T08:04:11;26.60;82.70
9984;DHT22;16737;50.932;6.780;2023-06-22T08:06:38;26.70;82.70
9984;DHT22;16737;50.932;6.780;2023-06-22T08:09:04;26.70;82.80
9984;DHT22;16737;50.932;6.780;2023-06-22T08:11:31;26.70;82.90
9984;DHT22;16737;50.932;6.780;2023-06-22T08:13:59;26.80;83.10
9984;DHT22;16737;50.932;6.780;2023-06-22T08:16:26;26.80;83.10
9984;DHT22;16737;50.932;6.780;2023-06-22T08:18:54;26.80;83.30
9984;DHT22;16737;50.932;6.780;2023-06-22T08:21:22;26.90;83.60
9984;DHT22;16737;50.932;6.780;2023-06-22T08:23:49;27.00;83.60
9984;DHT22;16737;50.932;6.780;2023-06-22T08:26:16;27.00;83.60
9984;DHT22;16737;50.932;6.780;2023-06-22T08:28:43;27.00;83.70
9984;DHT22;16737;50.932;6.780;2023-06-22T08:31:09;27.10;83.90
9984;DHT22;16737;50.932;6.780;2023-06-22T08:33:37;27.20;84.00
9984;DHT22;16737;50.932;6.780;2023-06-22T08:36:06;27.30;84.30
9984;DHT22;16737;50.932;6.780;2023-06-22T08:38:33;27.40;84.60
9984;DHT22;16737;50.932;6.780;2023-06-22T08:41:00;27.40;84.40
9984;DHT22;16737;50.932;6.780;2023-06-22T08:43:28;27.50;84.40
9984;DHT22;16737;50.932;6.780;2023-06-22T08:45:55;27.60;84.30
9984;DHT22;16737;50.932;6.780;2023-06-22T08:48:22;27.70;84.30
9984;DHT22;16737;50.932;6.780;2023-06-22T08:50:49;27.80;84.70
9984;DHT22;16737;50.932;6.780;2023-06-22T08:53:17;27.90;84.70
9984;DHT22;16737;50.932;6.780;2023-06-22T08:55:44;28.00;84.60
9984;DHT22;16737;50.932;6.780;2023-06-22T08:58:11;28.10;84.80
9984;DHT22;16737;50.932;6.780;2023-06-22T09:00:38;28.20;84.30
9984;DHT22;16737;50.932;6.780;2023-06-22T09:03:05;28.30;84.30
9984;DHT22;16737;50.932;6.780;2023-06-22T09:05:32;28.50;84.60
9984;DHT22;16737;50.932;6.780;2023-06-22T09:07:59;28.60;84.30
9984;DHT22;16737;50.932;6.780;2023-06-22T09:10:29;28.70;84.10
9984;DHT22;16737;50.932;6.780;2023-06-22T09:12:56;28.80;83.80
9984;DHT22;16737;50.932;6.780;2023-06-22T09:15:24;28.90;83.10
9984;DHT22;16737;50.932;6.780;2023-06-22T09:17:51;29.00;83.20
9984;DHT22;16737;50.932;6.780;2023-06-22T09:20:20;29.10;82.80
9984;DHT22;16737;50.932;6.780;2023-06-22T09:22:47;29.20;82.80
9984;DHT22;16737;50.932;6.780;2023-06-22T09:25:14;29.30;83.20
9984;DHT22;16737;50.932;6.780;2023-06-22T09:27:42;29.40;82.80
9984;DHT22;16737;50.932;6.780;2023-06-22T09:30:10;29.50;82.20
9984;DHT22;16737;50.932;6.780;2023-06-22T09:32:37;29.50;81.70
9984;DHT22;16737;50.932;6.780;2023-06-22T09:35:05;29.60;81.70
9984;DHT22;16737;50.932;6.780;2023-06-22T09:37:33;29.60;82.50
9984;DHT22;16737;50.932;6.780;2023-06-22T09:40:01;29.70;82.10
9984;DHT22;16737;50.932;6.780;2023-06-22T09:42:32;29.70;82.80
9984;DHT22;16737;50.932;6.780;2023-06-22T09:45:01;29.80;83.50
9984;DHT22;16737;50.932;6.780;2023-06-22T09:47:29;29.90;83.50
9984;DHT22;16737;50.932;6.780;2023-06-22T09:49:56;30.00;82.40
9984;DHT22;16737;50.932;6.780;2023-06-22T09:52:25;30.20;83.10
9984;DHT22;16737;50.932;6.780;2023-06-22T09:54:52;30.30;82.80
9984;DHT22;16737;50.932;6.780;2023-06-22T09:57:19;30.30;82.00
9984;DHT22;16737;50.932;6.780;2023-06-22T09:59:46;30.40;81.70
9984;DHT22;16737;50.932;6.780;2023-06-22T10:02:14;30.50;80.70
9984;DHT22;16737;50.932;6.780;2023-06-22T10:04:41;30.50;80.40
9984;DHT22;16737;50.932;6.780;2023-06-22T10:07:08;30.60;79.80
9984;DHT22;16737;50.932;6.780;2023-06-22T10:09:35;30.60;79.70
9984;DHT22;16737;50.932;6.780;2023-06-22T10:12:02;30.50;79.70
9984;DHT22;16737;50.932;6.780;2023-06-22T10:14:30;30.50;79.50
9984;DHT22;16737;50.932;6.780;2023-06-22T10:16:56;30.50;79.70
9984;DHT22;16737;50.932;6.780;2023-06-22T10:19:25;30.40;79.80
9984;DHT22;16737;50.932;6.780;2023-06-22T10:21:52;30.30;80.00
9984;DHT22;16737;50.932;6.780;2023-06-22T10:24:19;30.20;80.10
9984;DHT22;16737;50.932;6.780;2023-06-22T10:26:46;30.10;80.80
9984;DHT22;16737;50.932;6.780;2023-06-22T10:29:16;30.00;81.40
9984;DHT22;16737;50.932;6.780;2023-06-22T10:31:43;29.90;82.00
9984;DHT22;16737;50.932;6.780;2023-06-22T10:34:10;29.70;82.40
9984;DHT22;16737;50.932;6.780;2023-06-22T10:36:38;29.60;82.80
9984;DHT22;16737;50.932;6.780;2023-06-22T10:39:05;29.50;83.30
9984;DHT22;16737;50.932;6.780;2023-06-22T10:41:33;29.40;83.60
9984;DHT22;16737;50.932;6.780;2023-06-22T10:43:59;29.20;83.90
9984;DHT22;16737;50.932;6.780;2023-06-22T10:46:26;29.10;84.00
9984;DHT22;16737;50.932;6.780;2023-06-22T10:48:53;29.00;84.40
9984;DHT22;16737;50.932;6.780;2023-06-22T10:51:22;28.90;84.80
9984;DHT22;16737;50.932;6.780;2023-06-22T10:53:51;28.80;85.00
9984;DHT22;16737;50.932;6.780;2023-06-22T10:56:18;28.70;85.70
9984;DHT22;16737;50.932;6.780;2023-06-22T10:58:46;28.50;85.70
9984;DHT22;16737;50.932;6.780;2023-06-22T11:01:13;28.40;85.80
9984;DHT22;16737;50.932;6.780;2023-06-22T11:03:40;28.30;85.90
9984;DHT22;16737;50.932;6.780;2023-06-22T11:06:07;28.30;86.10
9984;DHT22;16737;50.932;6.780;2023-06-22T11:08:34;28.10;86.50
9984;DHT22;16737;50.932;6.780;2023-06-22T11:11:03;28.00;86.70
9984;DHT22;16737;50.932;6.780;2023-06-22T11:13:30;28.00;87.60
9984;DHT22;16737;50.932;6.780;2023-06-22T11:15:57;27.80;87.60
9984;DHT22;16737;50.932;6.780;2023-06-22T11:18:24;27.80;88.90
9984;DHT22;16737;50.932;6.780;2023-06-22T11:20:51;27.70;88.40
9984;DHT22;16737;50.932;6.780;2023-06-22T11:23:18;27.70;88.90
9984;DHT22;16737;50.932;6.780;2023-06-22T11:25:46;27.60;89.40
9984;DHT22;16737;50.932;6.780;2023-06-22T11:28:14;27.50;89.70
9984;DHT22;16737;50.932;6.780;2023-06-22T11:30:41;27.50;90.00
9984;DHT22;16737;50.932;6.780;2023-06-22T11:33:08;27.40;90.00
9984;DHT22;16737;50.932;6.780;2023-06-22T11:35:35;27.30;90.00
9984;DHT22;16737;50.932;6.780;2023-06-22T11:38:02;27.20;90.20
9984;DHT22;16737;50.932;6.780;2023-06-22T11:40:31;27.20;90.50
9984;DHT22;16737;50.932;6.780;2023-06-22T11:42:58;27.10;91.00
9984;DHT22;16737;50.932;6.780;2023-06-22T11:45:27;27.10;90.90
9984;DHT22;16737;50.932;6.780;2023-06-22T11:47:54;27.10;91.20
9984;DHT22;16737;50.932;6.780;2023-06-22T11:50:21;27.00;91.00
9984;DHT22;16737;50.932;6.780;2023-06-22T11:52:48;27.00;91.10
9984;DHT22;16737;50.932;6.780;2023-06-22T11:55:16;26.90;91.10
9984;DHT22;16737;50.932;6.780;2023-06-22T11:57:53;26.90;91.30
9984;DHT22;16737;50.932;6.780;2023-06-22T12:00:21;26.90;92.40
9984;DHT22;16737;50.932;6.780;2023-06-22T12:02:51;26.80;91.90
9984;DHT22;16737;50.932;6.780;2023-06-22T12:05:19;26.80;92.30
9984;DHT22;16737;50.932;6.780;2023-06-22T12:07:47;26.80;92.40
9984;DHT22;16737;50.932;6.780;2023-06-22T12:10:14;26.90;92.50
9984;DHT22;16737;50.932;6.780;2023-06-22T12:12:42;26.90;92.50
9984;DHT22;16737;50.932;6.780;2023-06-22T12:15:09;26.90;92.50
9984;DHT22;16737;50.932;6.780;2023-06-22T12:17:37;26.90;92.50
9984;DHT22;16737;50.932;6.780;2023-06-22T12:20:07;26.90;92.40
9984;DHT22;16737;50.932;6.780;2023-06-22T12:22:35;26.90;92.60
9984;DHT22;16737;50.932;6.780;2023-06-22T12:25:04;26.90;92.50
9984;DHT22;16737;50.932;6.780;2023-06-22T12:27:31;26.90;92.80
9984;DHT22;16737;50.932;6.780;2023-06-22T12:29:58;26.90;92.80
9984;DHT22;16737;50.932;6.780;2023-06-22T12:32:28;26.90;92.90
9984;DHT22;16737;50.932;6.780;2023-06-22T12:34:56;27.00;93.10
9984;DHT22;16737;50.932;6.780;2023-06-22T12:37:24;26.90;93.00
9984;DHT22;16737;50.932;6.780;2023-06-22T12:39:51;27.00;93.00
9984;DHT22;16737;50.932;6.780;2023-06-22T12:42:18;27.00;92.90
9984;DHT22;16737;50.932;6.780;2023-06-22T12:44:46;26.90;92.90
9984;DHT22;16737;50.932;6.780;2023-06-22T12:47:13;27.00;92.90
9984;DHT22;16737;50.932;6.780;2023-06-22T12:49:40;26.90;92.90
9984;DHT22;16737;50.932;6.780;2023-06-22T12:52:09;27.00;92.90
9984;DHT22;16737;50.932;6.780;2023-06-22T12:54:38;27.00;93.10
9984;DHT22;16737;50.932;6.780;2023-06-22T12:57:06;27.00;93.00
9984;DHT22;16737;50.932;6.780;2023-06-22T12:59:33;27.00;93.00
9984;DHT22;16737;50.932;6.780;2023-06-22T13:02:00;27.00;93.00
9984;DHT22;16737;50.932;6.780;2023-06-22T13:04:27;27.00;93.10
9984;DHT22;16737;50.932;6.780;2023-06-22T13:06:53;27.00;93.10
9984;DHT22;16737;50.932;6.780;2023-06-22T13:09:20;27.00;93.10
9984;DHT22;16737;50.932;6.780;2023-06-22T13:11:49;27.00;93.20
9984;DHT22;16737;50.932;6.780;2023-06-22T13:14:17;27.10;93.30
9984;DHT22;16737;50.932;6.780;2023-06-22T13:16:44;27.10;93.30
9984;DHT22;16737;50.932;6.780;2023-06-22T13:19:11;27.10;93.40
9984;DHT22;16737;50.932;6.780;2023-06-22T13:21:38;27.10;93.70
9984;DHT22;16737;50.932;6.780;2023-06-22T13:24:06;27.10;93.50
9984;DHT22;16737;50.932;6.780;2023-06-22T13:26:33;27.20;93.50
9984;DHT22;16737;50.932;6.780;2023-06-22T13:29:01;27.20;93.50
9984;DHT22;16737;50.932;6.780;2023-06-22T13:31:28;27.30;93.60
9984;DHT22;16737;50.932;6.780;2023-06-22T13:33:55;27.30;93.40
9984;DHT22;16737;50.932;6.780;2023-06-22T13:36:22;27.30;93.40
9984;DHT22;16737;50.932;6.780;2023-06-22T13:38:49;27.40;93.50
9984;DHT22;16737;50.932;6.780;2023-06-22T13:41:17;27.40;93.40
9984;DHT22;16737;50.932;6.780;2023-06-22T13:43:44;27.40;93.40
9984;DHT22;16737;50.932;6.780;2023-06-22T13:46:12;27.50;93.60
9984;DHT22;16737;50.932;6.780;2023-06-22T13:48:39;27.50;93.60
9984;DHT22;16737;50.932;6.780;2023-06-22T13:51:06;27.60;93.90
9984;DHT22;16737;50.932;6.780;2023-06-22T13:53:33;27.60;93.80
9984;DHT22;16737;50.932;6.780;2023-06-22T13:56:00;27.70;93.90
9984;DHT22;16737;50.932;6.780;2023-06-22T13:58:26;27.80;93.90
9984;DHT22;16737;50.932;6.780;2023-06-22T14:00:53;27.90;93.80
9984;DHT22;16737;50.932;6.780;2023-06-22T14:03:22;28.00;93.70
9984;DHT22;16737;50.932;6.780;2023-06-22T14:05:49;28.10;93.60
9984;DHT22;16737;50.932;6.780;2023-06-22T14:08:19;28.10;93.40
9984;DHT22;16737;50.932;6.780;2023-06-22T14:10:49;28.20;93.30
9984;DHT22;16737;50.932;6.780;2023-06-22T14:13:16;28.20;93.20
9984;DHT22;16737;50.932;6.780;2023-06-22T14:15:43;28.20;93.10
9984;DHT22;16737;50.932;6.780;2023-06-22T14:18:10;28.20;93.00
9984;DHT22;16737;50.932;6.780;2023-06-22T14:20:38;28.20;93.00
9984;DHT22;16737;50.932;6.780;2023-06-22T14:23:05;28.20;93.10
9984;DHT22;16737;50.932;6.780;2023-06-22T14:25:32;28.20;93.00
9984;DHT22;16737;50.932;6.780;2023-06-22T14:27:59;28.20;93.00
9984;DHT22;16737;50.932;6.780;2023-06-22T14:30:26;28.20;93.00
9984;DHT22;16737;50.932;6.780;2023-06-22T14:32:53;28.20;92.90
9984;DHT22;16737;50.932;6.780;2023-06-22T14:35:20;28.20;93.00
9984;DHT22;16737;50.932;6.780;2023-06-22T14:37:50;28.10;92.90
9984;DHT22;16737;50.932;6.780;2023-06-22T14:40:17;28.10;92.90
9984;DHT22;16737;50.932;6.780;2023-06-22T14:42:43;28.10;92.80
9984;DHT22;16737;50.932;6.780;2023-06-22T14:45:12;28.10;92.80
9984;DHT22;16737;50.932;6.780;2023-06-22T14:47:39;28.00;92.80
9984;DHT22;16737;50.932;6.780;2023-06-22T14:50:07;28.00;92.90
9984;DHT22;16737;50.932;6.780;2023-06-22T14:52:34;28.00;93.00
9984;DHT22;16737;50.932;6.780;2023-06-22T14:55:02;27.90;93.00
9984;DHT22;16737;50.932;6.780;2023-06-22T14:57:30;27.90;93.10
9984;DHT22;16737;50.932;6.780;2023-06-22T14:59:57;28.00;93.10
9984;DHT22;16737;50.932;6.780;2023-06-22T15:02:24;27.90;93.10
9984;DHT22;16737;50.932;6.780;2023-06-22T15:04:51;27.90;93.10
9984;DHT22;16737;50.932;6.780;2023-06-22T15:07:18;27.90;93.10
9984;DHT22;16737;50.932;6.780;2023-06-22T15:09:45;27.90;93.20
9984;DHT22;16737;50.932;6.780;2023-06-22T15:12:14;27.90;93.00
9984;DHT22;16737;50.932;6.780;2023-06-22T15:14:41;27.90;92.90
9984;DHT22;16737;50.932;6.780;2023-06-22T15:17:08;27.80;92.80
9984;DHT22;16737;50.932;6.780;2023-06-22T15:19:36;27.80;92.90
9984;DHT22;16737;50.932;6.780;2023-06-22T15:22:04;27.80;93.00
9984;DHT22;16737;50.932;6.780;2023-06-22T15:24:32;27.80;93.20
9984;DHT22;16737;50.932;6.780;2023-06-22T15:27:03;27.70;93.20
9984;DHT22;16737;50.932;6.780;2023-06-22T15:29:40;27.60;93.30
9984;DHT22;16737;50.932;6.780;2023-06-22T15:32:08;27.60;93.10
9984;DHT22;16737;50.932;6.780;2023-06-22T15:34:38;27.40;93.10
9984;DHT22;16737;50.932;6.780;2023-06-22T15:37:05;27.30;93.10
9984;DHT22;16737;50.932;6.780;2023-06-22T15:39:32;27.10;93.20
9984;DHT22;16737;50.932;6.780;2023-06-22T15:42:03;27.00;93.30
9984;DHT22;16737;50.932;6.780;2023-06-22T15:44:32;26.90;93.40
9984;DHT22;16737;50.932;6.780;2023-06-22T15:46:58;26.80;93.70
9984;DHT22;16737;50.932;6.780;2023-06-22T15:49:25;26.60;93.60